sensor_id;sensor_type;location;lat;lon;timestamp;P1;durP1;ratioP1;P2;durP2;ratioP2
23001;SDS011;11667;51.706;4.856;2024-01-06T00:00:08;61.60;;;40.05;;
23001;SDS011;11667;51.706;4.856;2024-01-06T00:02:38;62.23;;;40.38;;
23001;SDS011;11667;51.706;4.856;2024-01-06T00:05:08;59.63;;;37.73;;
23001;SDS011;11667;51.706;4.856;2024-01-06T00:07:37;58.08;;;38.15;;
23001;SDS011;11667;51.706;4.856;2024-01-06T00:10:06;58.60;;;38.15;;
23001;SDS011;11667;51.706;4.856;2024-01-06T00:12:36;61.05;;;38.15;;
23001;SDS011;11667;51.706;4.856;2024-01-06T00:15:06;59.85;;;38.78;;
23001;SDS011;11667;51.706;4.856;2024-01-06T00:17:36;59.10;;;38.53;;
23001;SDS011;11667;51.706;4.856;2024-01-06T00:20:05;56.05;;;37.15;;
23001;SDS011;11667;51.706;4.856;2024-01-06T00:22:36;53.78;;;34.63;;
23001;SDS011;11667;51.706;4.856;2024-01-06T00:25:05;56.28;;;35.10;;
23001;SDS011;11667;51.706;4.856;2024-01-06T00:27:35;54.20;;;34.03;;
23001;SDS011;11667;51.706;4.856;2024-01-06T00:30:05;52.25;;;36.20;;
23001;SDS011;11667;51.706;4.856;2024-01-06T00:32:36;54.10;;;33.45;;
23001;SDS011;11667;51.706;4.856;2024-01-06T00:35:05;56.05;;;34.73;;
23001;SDS011;11667;51.706;4.856;2024-01-06T00:37:35;56.05;;;34.20;;
23001;SDS011;11667;51.706;4.856;2024-01-06T00:40:05;53.48;;;34.30;;
23001;SDS011;11667;51.706;4.856;2024-01-06T00:42:35;51.90;;;32.28;;
23001;SDS011;11667;51.706;4.856;2024-01-06T00:45:04;50.78;;;33.55;;
23001;SDS011;11667;51.706;4.856;2024-01-06T00:47:34;49.65;;;32.20;;
23001;SDS011;11667;51.706;4.856;2024-01-06T00:50:04;46.85;;;32.10;;
23001;SDS011;11667;51.706;4.856;2024-01-06T00:52:34;51.35;;;32.33;;
23001;SDS011;11667;51.706;4.856;2024-01-06T00:55:04;47.35;;;31.50;;
23001;SDS011;11667;51.706;4.856;2024-01-06T00:57:33;46.00;;;29.67;;
23001;SDS011;11667;51.706;4.856;2024-01-06T01:00:06;49.30;;;30.75;;
23001;SDS011;11667;51.706;4.856;2024-01-06T01:02:36;46.85;;;30.70;;
23001;SDS011;11667;51.706;4.856;2024-01-06T01:05:07;46.85;;;29.37;;
23001;SDS011;11667;51.706;4.856;2024-01-06T01:07:36;45.52;;;29.40;;
23001;SDS011;11667;51.706;4.856;2024-01-06T01:10:06;48.13;;;29.35;;
23001;SDS011;11667;51.706;4.856;2024-01-06T01:12:39;42.45;;;28.32;;
23001;SDS011;11667;51.706;4.856;2024-01-06T01:15:08;45.00;;;27.77;;
23001;SDS011;11667;51.706;4.856;2024-01-06T01:17:38;44.38;;;27.95;;
23001;SDS011;11667;51.706;4.856;2024-01-06T01:20:08;43.73;;;28.17;;
23001;SDS011;11667;51.706;4.856;2024-01-06T01:22:37;42.35;;;27.70;;
23001;SDS011;11667;51.706;4.856;2024-01-06T01:25:07;42.98;;;27.80;;
23001;SDS011;11667;51.706;4.856;2024-01-06T01:27:36;42.85;;;28.42;;
23001;SDS011;11667;51.706;4.856;2024-01-06T01:30:06;40.50;;;25.35;;
23001;SDS011;11667;51.706;4.856;2024-01-06T01:32:36;42.78;;;27.40;;
23001;SDS011;11667;51.706;4.856;2024-01-06T01:35:06;40.78;;;24.95;;
23001;SDS011;11667;51.706;4.856;2024-01-06T01:37:36;42.23;;;26.35;;
23001;SDS011;11667;51.706;4.856;2024-01-06T01:40:06;40.08;;;25.65;;
23001;SDS011;11667;51.706;4.856;2024-01-06T01:42:35;38.98;;;25.57;;
23001;SDS011;11667;51.706;4.856;2024-01-06T01:45:05;38.00;;;25.62;;
23001;SDS011;11667;51.706;4.856;2024-01-06T01:50:23;38.50;;;25.48;;
23001;SDS011;11667;51.706;4.856;2024-01-06T01:52:54;36.33;;;24.75;;
23001;SDS011;11667;51.706;4.856;2024-01-06T01:55:24;37.80;;;25.02;;
23001;SDS011;11667;51.706;4.856;2024-01-06T01:57:53;34.03;;;23.80;;
23001;SDS011;11667;51.706;4.856;2024-01-06T02:00:23;36.70;;;22.45;;
23001;SDS011;11667;51.706;4.856;2024-01-06T02:02:54;34.83;;;23.02;;
23001;SDS011;11667;51.706;4.856;2024-01-06T02:05:24;34.92;;;22.07;;
23001;SDS011;11667;51.706;4.856;2024-01-06T02:07:53;32.70;;;22.48;;
23001;SDS011;11667;51.706;4.856;2024-01-06T02:10:23;36.90;;;22.13;;
23001;SDS011;11667;51.706;4.856;2024-01-06T02:12:52;32.67;;;23.27;;
23001;SDS011;11667;51.706;4.856;2024-01-06T02:15:21;31.55;;;20.23;;
23001;SDS011;11667;51.706;4.856;2024-01-06T02:17:51;33.35;;;22.42;;
23001;SDS011;11667;51.706;4.856;2024-01-06T02:20:20;27.30;;;19.25;;
23001;SDS011;11667;51.706;4.856;2024-01-06T02:22:51;34.95;;;21.48;;
23001;SDS011;11667;51.706;4.856;2024-01-06T02:25:21;31.62;;;20.23;;
23001;SDS011;11667;51.706;4.856;2024-01-06T02:27:50;33.45;;;21.55;;
23001;SDS011;11667;51.706;4.856;2024-01-06T02:30:19;29.05;;;19.23;;
23001;SDS011;11667;51.706;4.856;2024-01-06T02:32:49;30.02;;;20.15;;
23001;SDS011;11667;51.706;4.856;2024-01-06T02:35:19;30.00;;;19.37;;
23001;SDS011;11667;51.706;4.856;2024-01-06T02:37:49;27.90;;;17.75;;
23001;SDS011;11667;51.706;4.856;2024-01-06T02:40:18;31.37;;;19.45;;
23001;SDS011;11667;51.706;4.856;2024-01-06T02:42:47;25.82;;;18.05;;
23001;SDS011;11667;51.706;4.856;2024-01-06T02:45:17;26.55;;;18.52;;
23001;SDS011;11667;51.706;4.856;2024-01-06T02:47:46;28.38;;;18.60;;
23001;SDS011;11667;51.706;4.856;2024-01-06T02:50:16;28.17;;;18.12;;
23001;SDS011;11667;51.706;4.856;2024-01-06T02:52:46;28.55;;;18.30;;
23001;SDS011;11667;51.706;4.856;2024-01-06T02:55:15;27.27;;;17.75;;
23001;SDS011;11667;51.706;4.856;2024-01-06T02:57:45;29.52;;;17.32;;
23001;SDS011;11667;51.706;4.856;2024-01-06T03:00:15;25.52;;;16.23;;
23001;SDS011;11667;51.706;4.856;2024-01-06T03:02:44;26.27;;;17.87;;
23001;SDS011;11667;51.706;4.856;2024-01-06T03:05:14;25.43;;;17.23;;
23001;SDS011;11667;51.706;4.856;2024-01-06T03:07:43;28.47;;;18.23;;
23001;SDS011;11667;51.706;4.856;2024-01-06T03:10:12;28.27;;;17.95;;
23001;SDS011;11667;51.706;4.856;2024-01-06T03:12:42;23.90;;;16.37;;
23001;SDS011;11667;51.706;4.856;2024-01-06T03:15:11;25.02;;;16.00;;
23001;SDS011;11667;51.706;4.856;2024-01-06T03:17:40;24.57;;;16.50;;
23001;SDS011;11667;51.706;4.856;2024-01-06T03:20:10;27.22;;;16.97;;
23001;SDS011;11667;51.706;4.856;2024-01-06T03:22:39;23.87;;;16.10;;
23001;SDS011;11667;51.706;4.856;2024-01-06T03:25:09;25.48;;;17.65;;
23001;SDS011;11667;51.706;4.856;2024-01-06T03:27:38;23.98;;;15.93;;
23001;SDS011;11667;51.706;4.856;2024-01-06T03:30:07;22.35;;;15.70;;
23001;SDS011;11667;51.706;4.856;2024-01-06T03:32:37;23.42;;;15.28;;
23001;SDS011;11667;51.706;4.856;2024-01-06T03:35:07;23.40;;;16.15;;
23001;SDS011;11667;51.706;4.856;2024-01-06T03:37:36;22.70;;;14.68;;
23001;SDS011;11667;51.706;4.856;2024-01-06T03:40:06;23.90;;;14.73;;
23001;SDS011;11667;51.706;4.856;2024-01-06T03:42:36;22.35;;;14.07;;
23001;SDS011;11667;51.706;4.856;2024-01-06T03:45:06;23.35;;;14.98;;
23001;SDS011;11667;51.706;4.856;2024-01-06T03:47:36;21.77;;;13.32;;
23001;SDS011;11667;51.706;4.856;2024-01-06T03:50:05;19.40;;;13.38;;
23001;SDS011;11667;51.706;4.856;2024-01-06T03:52:35;22.13;;;13.90;;
23001;SDS011;11667;51.706;4.856;2024-01-06T03:55:05;19.60;;;13.15;;
23001;SDS011;11667;51.706;4.856;2024-01-06T03:57:35;19.77;;;14.05;;
23001;SDS011;11667;51.706;4.856;2024-01-06T04:00:05;20.35;;;14.23;;
23001;SDS011;11667;51.706;4.856;2024-01-06T04:02:35;18.50;;;12.98;;
23001;SDS011;11667;51.706;4.856;2024-01-06T04:05:04;19.10;;;13.05;;
23001;SDS011;11667;51.706;4.856;2024-01-06T04:07:34;19.02;;;12.43;;
23001;SDS011;11667;51.706;4.856;2024-01-06T04:10:03;19.27;;;13.38;;
23001;SDS011;11667;51.706;4.856;2024-01-06T04:12:33;19.00;;;12.90;;
23001;SDS011;11667;51.706;4.856;2024-01-06T04:15:02;19.27;;;12.50;;
23001;SDS011;11667;51.706;4.856;2024-01-06T04:17:32;18.67;;;12.85;;
23001;SDS011;11667;51.706;4.856;2024-01-06T04:20:02;17.77;;;12.43;;
23001;SDS011;11667;51.706;4.856;2024-01-06T04:22:31;17.57;;;11.95;;
23001;SDS011;11667;51.706;4.856;2024-01-06T04:25:01;16.60;;;11.53;;
23001;SDS011;11667;51.706;4.856;2024-01-06T04:27:30;17.52;;;11.12;;
23001;SDS011;11667;51.706;4.856;2024-01-06T04:30:01;19.17;;;11.93;;
23001;SDS011;11667;51.706;4.856;2024-01-06T04:32:31;17.85;;;11.75;;
23001;SDS011;11667;51.706;4.856;2024-01-06T04:35:01;18.65;;;11.95;;
23001;SDS011;11667;51.706;4.856;2024-01-06T04:37:30;15.70;;;10.88;;
23001;SDS011;11667;51.706;4.856;2024-01-06T04:39:59;15.50;;;10.95;;
23001;SDS011;11667;51.706;4.856;2024-01-06T04:42:30;16.62;;;10.38;;
23001;SDS011;11667;51.706;4.856;2024-01-06T04:44:59;16.20;;;10.63;;
23001;SDS011;11667;51.706;4.856;2024-01-06T04:47:28;17.70;;;11.10;;
23001;SDS011;11667;51.706;4.856;2024-01-06T04:49:58;16.70;;;11.45;;
23001;SDS011;11667;51.706;4.856;2024-01-06T04:52:27;15.28;;;10.15;;
23001;SDS011;11667;51.706;4.856;2024-01-06T04:54:57;15.35;;;10.15;;
23001;SDS011;11667;51.706;4.856;2024-01-06T04:57:26;15.18;;;9.70;;
23001;SDS011;11667;51.706;4.856;2024-01-06T04:59:56;14.18;;;9.05;;
23001;SDS011;11667;51.706;4.856;2024-01-06T05:02:25;15.13;;;10.10;;
23001;SDS011;11667;51.706;4.856;2024-01-06T05:04:55;13.83;;;9.70;;
23001;SDS011;11667;51.706;4.856;2024-01-06T05:07:24;13.43;;;9.28;;
23001;SDS011;11667;51.706;4.856;2024-01-06T05:09:54;13.22;;;9.25;;
23001;SDS011;11667;51.706;4.856;2024-01-06T05:12:23;12.45;;;8.70;;
23001;SDS011;11667;51.706;4.856;2024-01-06T05:14:53;16.02;;;9.55;;
23001;SDS011;11667;51.706;4.856;2024-01-06T05:17:22;13.45;;;8.55;;
23001;SDS011;11667;51.706;4.856;2024-01-06T05:19:52;13.15;;;9.58;;
23001;SDS011;11667;51.706;4.856;2024-01-06T05:22:21;13.43;;;8.78;;
23001;SDS011;11667;51.706;4.856;2024-01-06T05:24:51;12.85;;;9.25;;
23001;SDS011;11667;51.706;4.856;2024-01-06T05:27:21;12.95;;;9.03;;
23001;SDS011;11667;51.706;4.856;2024-01-06T05:29:50;13.10;;;9.48;;
23001;SDS011;11667;51.706;4.856;2024-01-06T05:32:20;13.50;;;8.70;;
23001;SDS011;11667;51.706;4.856;2024-01-06T05:34:49;13.43;;;8.73;;
23001;SDS011;11667;51.706;4.856;2024-01-06T05:37:19;12.98;;;8.83;;
23001;SDS011;11667;51.706;4.856;2024-01-06T05:39:49;11.45;;;7.72;;
23001;SDS011;11667;51.706;4.856;2024-01-06T05:42:18;12.93;;;8.75;;
23001;SDS011;11667;51.706;4.856;2024-01-06T05:44:47;12.10;;;8.15;;
23001;SDS011;11667;51.706;4.856;2024-01-06T05:47:18;13.03;;;8.85;;
23001;SDS011;11667;51.706;4.856;2024-01-06T05:49:47;11.28;;;8.38;;
23001;SDS011;11667;51.706;4.856;2024-01-06T05:52:16;12.00;;;8.28;;
23001;SDS011;11667;51.706;4.856;2024-01-06T05:54:46;12.00;;;7.60;;
23001;SDS011;11667;51.706;4.856;2024-01-06T05:57:15;11.90;;;8.05;;
23001;SDS011;11667;51.706;4.856;2024-01-06T05:59:45;10.93;;;7.35;;
23001;SDS011;11667;51.706;4.856;2024-01-06T06:02:15;11.38;;;7.78;;
23001;SDS011;11667;51.706;4.856;2024-01-06T06:04:44;10.55;;;7.17;;
23001;SDS011;11667;51.706;4.856;2024-01-06T06:07:14;11.90;;;7.80;;
23001;SDS011;11667;51.706;4.856;2024-01-06T06:09:43;10.63;;;7.42;;
23001;SDS011;11667;51.706;4.856;2024-01-06T06:12:14;11.55;;;7.53;;
23001;SDS011;11667;51.706;4.856;2024-01-06T06:14:43;11.90;;;7.50;;
23001;SDS011;11667;51.706;4.856;2024-01-06T06:17:13;11.65;;;7.20;;
23001;SDS011;11667;51.706;4.856;2024-01-06T06:19:42;9.28;;;6.70;;
23001;SDS011;11667;51.706;4.856;2024-01-06T06:22:11;8.88;;;6.33;;
23001;SDS011;11667;51.706;4.856;2024-01-06T06:24:41;11.05;;;7.15;;
23001;SDS011;11667;51.706;4.856;2024-01-06T06:27:10;10.93;;;6.87;;
23001;SDS011;11667;51.706;4.856;2024-01-06T06:29:40;10.78;;;6.28;;
23001;SDS011;11667;51.706;4.856;2024-01-06T06:32:09;10.90;;;6.95;;
23001;SDS011;11667;51.706;4.856;2024-01-06T06:34:38;9.88;;;6.55;;
23001;SDS011;11667;51.706;4.856;2024-01-06T06:37:08;10.38;;;6.12;;
23001;SDS011;11667;51.706;4.856;2024-01-06T06:39:37;9.18;;;6.12;;
23001;SDS011;11667;51.706;4.856;2024-01-06T06:42:07;9.95;;;6.58;;
23001;SDS011;11667;51.706;4.856;2024-01-06T06:44:36;10.10;;;5.97;;
23001;SDS011;11667;51.706;4.856;2024-01-06T06:47:05;8.65;;;5.45;;
23001;SDS011;11667;51.706;4.856;2024-01-06T06:49:35;9.65;;;6.45;;
23001;SDS011;11667;51.706;4.856;2024-01-06T06:52:04;9.38;;;6.35;;
23001;SDS011;11667;51.706;4.856;2024-01-06T06:54:34;10.05;;;6.20;;
23001;SDS011;11667;51.706;4.856;2024-01-06T06:57:04;10.43;;;5.87;;
23001;SDS011;11667;51.706;4.856;2024-01-06T06:59:33;10.68;;;6.53;;
23001;SDS011;11667;51.706;4.856;2024-01-06T07:02:02;8.83;;;6.17;;
23001;SDS011;11667;51.706;4.856;2024-01-06T07:04:32;9.55;;;6.15;;
23001;SDS011;11667;51.706;4.856;2024-01-06T07:07:01;8.90;;;5.87;;
23001;SDS011;11667;51.706;4.856;2024-01-06T07:09:30;7.95;;;5.47;;
23001;SDS011;11667;51.706;4.856;2024-01-06T07:12:00;8.75;;;6.28;;
23001;SDS011;11667;51.706;4.856;2024-01-06T07:14:29;9.38;;;5.75;;
23001;SDS011;11667;51.706;4.856;2024-01-06T07:16:59;8.18;;;5.45;;
23001;SDS011;11667;51.706;4.856;2024-01-06T07:19:28;8.90;;;5.65;;
23001;SDS011;11667;51.706;4.856;2024-01-06T07:21:58;7.58;;;5.22;;
23001;SDS011;11667;51.706;4.856;2024-01-06T07:24:28;8.50;;;5.60;;
23001;SDS011;11667;51.706;4.856;2024-01-06T07:26:58;7.67;;;4.90;;
23001;SDS011;11667;51.706;4.856;2024-01-06T07:29:27;9.70;;;5.37;;
23001;SDS011;11667;51.706;4.856;2024-01-06T07:31:57;7.60;;;5.35;;
23001;SDS011;11667;51.706;4.856;2024-01-06T07:34:26;7.72;;;4.65;;
23001;SDS011;11667;51.706;4.856;2024-01-06T07:36:56;7.15;;;5.05;;
23001;SDS011;11667;51.706;4.856;2024-01-06T07:39:26;7.40;;;4.97;;
23001;SDS011;11667;51.706;4.856;2024-01-06T07:41:55;7.50;;;5.05;;
23001;SDS011;11667;51.706;4.856;2024-01-06T07:44:24;7.47;;;4.60;;
23001;SDS011;11667;51.706;4.856;2024-01-06T07:46:53;6.80;;;4.72;;
23001;SDS011;11667;51.706;4.856;2024-01-06T07:49:23;7.50;;;4.62;;
23001;SDS011;11667;51.706;4.856;2024-01-06T07:51:52;6.15;;;4.45;;
23001;SDS011;11667;51.706;4.856;2024-01-06T07:54:22;6.62;;;4.37;;
23001;SDS011;11667;51.706;4.856;2024-01-06T07:56:51;6.47;;;4.58;;
23001;SDS011;11667;51.706;4.856;2024-01-06T07:59:21;6.20;;;4.25;;
23001;SDS011;11667;51.706;4.856;2024-01-06T08:01:51;6.85;;;4.35;;
23001;SDS011;11667;51.706;4.856;2024-01-06T08:04:20;6.08;;;4.17;;
23001;SDS011;11667;51.706;4.856;2024-01-06T08:06:50;7.58;;;4.87;;
23001;SDS011;11667;51.706;4.856;2024-01-06T08:09:21;6.30;;;4.30;;
23001;SDS011;11667;51.706;4.856;2024-01-06T08:11:52;7.28;;;4.37;;
23001;SDS011;11667;51.706;4.856;2024-01-06T08:14:21;7.50;;;4.40;;
23001;SDS011;11667;51.706;4.856;2024-01-06T08:16:50;6.25;;;4.12;;
23001;SDS011;11667;51.706;4.856;2024-01-06T08:19:20;6.45;;;4.08;;
23001;SDS011;11667;51.706;4.856;2024-01-06T08:21:49;8.20;;;4.47;;
23001;SDS011;11667;51.706;4.856;2024-01-06T08:24:19;6.28;;;4.15;;
23001;SDS011;11667;51.706;4.856;2024-01-06T08:26:48;6.72;;;4.28;;
23001;SDS011;11667;51.706;4.856;2024-01-06T08:29:17;7.50;;;4.65;;
23001;SDS011;11667;51.706;4.856;2024-01-06T08:31:47;9.05;;;5.97;;
23001;SDS011;11667;51.706;4.856;2024-01-06T08:34:19;9.05;;;5.53;;
23001;SDS011;11667;51.706;4.856;2024-01-06T08:36:48;8.83;;;5.45;;
23001;SDS011;11667;51.706;4.856;2024-01-06T08:39:18;10.13;;;5.95;;
23001;SDS011;11667;51.706;4.856;2024-01-06T08:41:49;18.75;;;11.80;;
23001;SDS011;11667;51.706;4.856;2024-01-06T08:44:18;20.70;;;12.18;;
23001;SDS011;11667;51.706;4.856;2024-01-06T08:46:48;19.10;;;10.75;;
23001;SDS011;11667;51.706;4.856;2024-01-06T08:49:17;18.73;;;10.65;;
23001;SDS011;11667;51.706;4.856;2024-01-06T08:51:47;17.65;;;10.18;;
23001;SDS011;11667;51.706;4.856;2024-01-06T08:54:16;15.75;;;10.40;;
23001;SDS011;11667;51.706;4.856;2024-01-06T08:56:46;17.73;;;10.30;;
23001;SDS011;11667;51.706;4.856;2024-01-06T08:59:15;16.82;;;9.93;;
23001;SDS011;11667;51.706;4.856;2024-01-06T09:01:44;16.52;;;9.65;;
23001;SDS011;11667;51.706;4.856;2024-01-06T09:04:15;17.52;;;10.28;;
23001;SDS011;11667;51.706;4.856;2024-01-06T09:06:45;16.50;;;10.18;;
23001;SDS011;11667;51.706;4.856;2024-01-06T09:09:15;16.37;;;10.15;;
23001;SDS011;11667;51.706;4.856;2024-01-06T09:11:44;16.00;;;10.35;;
23001;SDS011;11667;51.706;4.856;2024-01-06T09:14:13;15.20;;;9.55;;
23001;SDS011;11667;51.706;4.856;2024-01-06T09:16:45;15.98;;;10.00;;
23001;SDS011;11667;51.706;4.856;2024-01-06T09:19:14;16.12;;;9.20;;
23001;SDS011;11667;51.706;4.856;2024-01-06T09:21:44;15.35;;;9.38;;
23001;SDS011;11667;51.706;4.856;2024-01-06T09:24:13;15.55;;;9.78;;
23001;SDS011;11667;51.706;4.856;2024-01-06T09:26:43;16.52;;;9.45;;
23001;SDS011;11667;51.706;4.856;2024-01-06T09:29:12;16.82;;;10.40;;
23001;SDS011;11667;51.706;4.856;2024-01-06T09:31:43;15.78;;;9.10;;
23001;SDS011;11667;51.706;4.856;2024-01-06T09:34:12;16.07;;;9.18;;
23001;SDS011;11667;51.706;4.856;2024-01-06T09:36:42;15.58;;;9.00;;
23001;SDS011;11667;51.706;4.856;2024-01-06T09:39:11;16.12;;;9.73;;
23001;SDS011;11667;51.706;4.856;2024-01-06T09:41:41;14.83;;;9.00;;
23001;SDS011;11667;51.706;4.856;2024-01-06T09:44:10;17.95;;;9.48;;
23001;SDS011;11667;51.706;4.856;2024-01-06T09:46:41;16.60;;;10.70;;
23001;SDS011;11667;51.706;4.856;2024-01-06T09:49:11;15.45;;;8.75;;
23001;SDS011;11667;51.706;4.856;2024-01-06T09:51:42;16.15;;;9.48;;
23001;SDS011;11667;51.706;4.856;2024-01-06T09:54:13;15.58;;;9.80;;
23001;SDS011;11667;51.706;4.856;2024-01-06T09:56:43;16.48;;;9.93;;
23001;SDS011;11667;51.706;4.856;2024-01-06T09:59:14;17.67;;;10.30;;
23001;SDS011;11667;51.706;4.856;2024-01-06T10:01:44;16.97;;;9.75;;
23001;SDS011;11667;51.706;4.856;2024-01-06T10:04:14;16.20;;;9.18;;
23001;SDS011;11667;51.706;4.856;2024-01-06T10:06:45;19.60;;;11.00;;
23001;SDS011;11667;51.706;4.856;2024-01-06T10:09:14;19.40;;;10.80;;
23001;SDS011;11667;51.706;4.856;2024-01-06T10:11:43;18.55;;;11.00;;
23001;SDS011;11667;51.706;4.856;2024-01-06T10:14:13;18.87;;;11.25;;
23001;SDS011;11667;51.706;4.856;2024-01-06T10:16:42;18.70;;;12.07;;
23001;SDS011;11667;51.706;4.856;2024-01-06T10:19:12;18.17;;;11.28;;
23001;SDS011;11667;51.706;4.856;2024-01-06T10:21:41;18.10;;;10.63;;
23001;SDS011;11667;51.706;4.856;2024-01-06T10:24:11;18.62;;;11.28;;
23001;SDS011;11667;51.706;4.856;2024-01-06T10:26:41;18.15;;;10.80;;
23001;SDS011;11667;51.706;4.856;2024-01-06T10:29:11;18.27;;;11.03;;
23001;SDS011;11667;51.706;4.856;2024-01-06T10:31:42;17.57;;;11.50;;
23001;SDS011;11667;51.706;4.856;2024-01-06T10:34:11;20.10;;;10.55;;
23001;SDS011;11667;51.706;4.856;2024-01-06T10:36:41;18.50;;;10.75;;
23001;SDS011;11667;51.706;4.856;2024-01-06T10:39:11;19.05;;;10.75;;
23001;SDS011;11667;51.706;4.856;2024-01-06T10:41:42;19.80;;;11.93;;
23001;SDS011;11667;51.706;4.856;2024-01-06T10:44:12;20.30;;;12.07;;
23001;SDS011;11667;51.706;4.856;2024-01-06T10:46:43;20.05;;;11.55;;
23001;SDS011;11667;51.706;4.856;2024-01-06T10:49:13;21.40;;;13.60;;
23001;SDS011;11667;51.706;4.856;2024-01-06T10:51:43;22.20;;;14.00;;
23001;SDS011;11667;51.706;4.856;2024-01-06T10:54:13;22.42;;;13.08;;
23001;SDS011;11667;51.706;4.856;2024-01-06T10:56:43;21.68;;;12.23;;
23001;SDS011;11667;51.706;4.856;2024-01-06T10:59:14;22.77;;;13.68;;
23001;SDS011;11667;51.706;4.856;2024-01-06T11:01:43;21.77;;;12.13;;
23001;SDS011;11667;51.706;4.856;2024-01-06T11:04:13;20.45;;;12.60;;
23001;SDS011;11667;51.706;4.856;2024-01-06T11:06:43;23.42;;;12.82;;
23001;SDS011;11667;51.706;4.856;2024-01-06T11:09:14;20.92;;;12.40;;
23001;SDS011;11667;51.706;4.856;2024-01-06T11:11:45;20.48;;;11.88;;
23001;SDS011;11667;51.706;4.856;2024-01-06T11:14:18;19.37;;;11.45;;
23001;SDS011;11667;51.706;4.856;2024-01-06T11:16:50;19.82;;;11.35;;
23001;SDS011;11667;51.706;4.856;2024-01-06T11:22:27;19.82;;;11.03;;
23001;SDS011;11667;51.706;4.856;2024-01-06T11:25:04;18.48;;;10.68;;
23001;SDS011;11667;51.706;4.856;2024-01-06T11:27:35;20.97;;;11.93;;
23001;SDS011;11667;51.706;4.856;2024-01-06T11:30:05;17.98;;;11.70;;
23001;SDS011;11667;51.706;4.856;2024-01-06T11:32:36;19.20;;;11.57;;
23001;SDS011;11667;51.706;4.856;2024-01-06T11:35:12;44.55;;;26.90;;
23001;SDS011;11667;51.706;4.856;2024-01-06T11:42:46;48.48;;;29.30;;
23001;SDS011;11667;51.706;4.856;2024-01-06T11:45:16;48.60;;;28.85;;
23001;SDS011;11667;51.706;4.856;2024-01-06T11:47:47;48.13;;;28.85;;
23001;SDS011;11667;51.706;4.856;2024-01-06T11:50:17;46.33;;;29.35;;
23001;SDS011;11667;51.706;4.856;2024-01-06T11:52:46;47.35;;;29.70;;
23001;SDS011;11667;51.706;4.856;2024-01-06T11:55:15;45.63;;;27.95;;
23001;SDS011;11667;51.706;4.856;2024-01-06T11:57:46;48.02;;;27.75;;
23001;SDS011;11667;51.706;4.856;2024-01-06T12:00:17;44.42;;;27.62;;
23001;SDS011;11667;51.706;4.856;2024-01-06T12:02:47;43.83;;;27.35;;
23001;SDS011;11667;51.706;4.856;2024-01-06T12:05:17;44.38;;;27.17;;
23001;SDS011;11667;51.706;4.856;2024-01-06T12:07:53;40.25;;;24.85;;
23001;SDS011;11667;51.706;4.856;2024-01-06T12:10:24;42.98;;;25.52;;
23001;SDS011;11667;51.706;4.856;2024-01-06T12:13:06;43.65;;;26.17;;
23001;SDS011;11667;51.706;4.856;2024-01-06T12:15:27;40.52;;;22.48;;
23001;SDS011;11667;51.706;4.856;2024-01-06T12:17:58;40.65;;;22.55;;
23001;SDS011;11667;51.706;4.856;2024-01-06T12:20:28;40.30;;;24.37;;
23001;SDS011;11667;51.706;4.856;2024-01-06T12:22:57;39.80;;;23.30;;
23001;SDS011;11667;51.706;4.856;2024-01-06T12:25:28;39.67;;;24.72;;
23001;SDS011;11667;51.706;4.856;2024-01-06T12:30:29;44.48;;;26.05;;
23001;SDS011;11667;51.706;4.856;2024-01-06T12:32:59;43.83;;;26.70;;
23001;SDS011;11667;51.706;4.856;2024-01-06T12:35:29;39.40;;;23.90;;
23001;SDS011;11667;51.706;4.856;2024-01-06T12:37:58;42.65;;;25.43;;
23001;SDS011;11667;51.706;4.856;2024-01-06T12:40:28;41.95;;;24.75;;
23001;SDS011;11667;51.706;4.856;2024-01-06T12:42:57;42.30;;;26.27;;
23001;SDS011;11667;51.706;4.856;2024-01-06T12:45:27;40.90;;;25.23;;
23001;SDS011;11667;51.706;4.856;2024-01-06T12:47:56;39.35;;;25.05;;
23001;SDS011;11667;51.706;4.856;2024-01-06T12:50:26;38.35;;;24.12;;
23001;SDS011;11667;51.706;4.856;2024-01-06T12:52:55;36.80;;;24.07;;
23001;SDS011;11667;51.706;4.856;2024-01-06T12:55:25;39.05;;;24.18;;
23001;SDS011;11667;51.706;4.856;2024-01-06T12:57:54;40.98;;;24.23;;
23001;SDS011;11667;51.706;4.856;2024-01-06T13:00:23;37.70;;;23.77;;
23001;SDS011;11667;51.706;4.856;2024-01-06T13:02:53;38.53;;;22.42;;
23001;SDS011;11667;51.706;4.856;2024-01-06T13:05:22;38.48;;;23.52;;
23001;SDS011;11667;51.706;4.856;2024-01-06T13:07:52;33.70;;;20.65;;
23001;SDS011;11667;51.706;4.856;2024-01-06T13:10:21;36.63;;;21.60;;
23001;SDS011;11667;51.706;4.856;2024-01-06T13:12:51;35.03;;;21.12;;
23001;SDS011;11667;51.706;4.856;2024-01-06T13:15:20;33.58;;;22.25;;
23001;SDS011;11667;51.706;4.856;2024-01-06T13:17:50;34.53;;;21.48;;
23001;SDS011;11667;51.706;4.856;2024-01-06T13:20:20;33.48;;;19.73;;
23001;SDS011;11667;51.706;4.856;2024-01-06T13:22:49;34.38;;;20.43;;
23001;SDS011;11667;51.706;4.856;2024-01-06T13:25:19;29.92;;;20.00;;
23001;SDS011;11667;51.706;4.856;2024-01-06T13:27:49;32.48;;;19.98;;
23001;SDS011;11667;51.706;4.856;2024-01-06T13:30:19;32.67;;;20.20;;
23001;SDS011;11667;51.706;4.856;2024-01-06T13:32:48;33.70;;;20.35;;
23001;SDS011;11667;51.706;4.856;2024-01-06T13:35:18;33.00;;;19.20;;
23001;SDS011;11667;51.706;4.856;2024-01-06T13:37:55;32.15;;;19.48;;
23001;SDS011;11667;51.706;4.856;2024-01-06T13:40:23;32.05;;;19.50;;
23001;SDS011;11667;51.706;4.856;2024-01-06T13:42:52;30.68;;;18.40;;
23001;SDS011;11667;51.706;4.856;2024-01-06T13:45:22;29.95;;;17.87;;
23001;SDS011;11667;51.706;4.856;2024-01-06T13:47:52;31.40;;;18.75;;
23001;SDS011;11667;51.706;4.856;2024-01-06T13:50:21;28.00;;;17.23;;
23001;SDS011;11667;51.706;4.856;2024-01-06T13:52:51;28.32;;;16.95;;
23001;SDS011;11667;51.706;4.856;2024-01-06T13:55:20;32.33;;;18.25;;
23001;SDS011;11667;51.706;4.856;2024-01-06T13:57:50;27.15;;;16.80;;
23001;SDS011;11667;51.706;4.856;2024-01-06T14:00:20;27.70;;;16.80;;
23001;SDS011;11667;51.706;4.856;2024-01-06T14:02:49;25.72;;;17.82;;
23001;SDS011;11667;51.706;4.856;2024-01-06T14:05:19;26.15;;;16.90;;
23001;SDS011;11667;51.706;4.856;2024-01-06T14:07:48;25.72;;;16.77;;
23001;SDS011;11667;51.706;4.856;2024-01-06T14:10:19;25.32;;;16.82;;
23001;SDS011;11667;51.706;4.856;2024-01-06T14:12:48;28.52;;;17.40;;
23001;SDS011;11667;51.706;4.856;2024-01-06T14:15:17;25.88;;;15.80;;
23001;SDS011;11667;51.706;4.856;2024-01-06T14:17:47;28.07;;;18.10;;
23001;SDS011;11667;51.706;4.856;2024-01-06T14:20:18;25.97;;;16.50;;
23001;SDS011;11667;51.706;4.856;2024-01-06T14:22:47;29.07;;;17.57;;
23001;SDS011;11667;51.706;4.856;2024-01-06T14:25:17;27.65;;;17.32;;
23001;SDS011;11667;51.706;4.856;2024-01-06T14:27:46;25.75;;;17.20;;
23001;SDS011;11667;51.706;4.856;2024-01-06T14:30:16;26.33;;;16.77;;
23001;SDS011;11667;51.706;4.856;2024-01-06T14:32:47;27.30;;;16.12;;
23001;SDS011;11667;51.706;4.856;2024-01-06T14:35:18;26.30;;;16.95;;
23001;SDS011;11667;51.706;4.856;2024-01-06T14:37:48;27.95;;;17.67;;
23001;SDS011;11667;51.706;4.856;2024-01-06T14:40:19;27.25;;;17.12;;
23001;SDS011;11667;51.706;4.856;2024-01-06T14:42:48;24.75;;;15.05;;
23001;SDS011;11667;51.706;4.856;2024-01-06T14:45:18;25.70;;;16.75;;
23001;SDS011;11667;51.706;4.856;2024-01-06T14:47:47;24.37;;;15.48;;
23001;SDS011;11667;51.706;4.856;2024-01-06T14:50:19;25.05;;;15.75;;
23001;SDS011;11667;51.706;4.856;2024-01-06T14:52:48;23.73;;;16.27;;
23001;SDS011;11667;51.706;4.856;2024-01-06T14:55:17;25.12;;;15.88;;